sensor_id;sensor_type;location;lat;lon;timestamp;temperature;humidity
22153;DHT22;11242;50.536;12.688;2022-09-14T00:01:33;15.70;99.90
22153;DHT22;11242;50.536;12.688;2022-09-14T00:04:05;15.70;99.90
22153;DHT22;11242;50.536;12.688;2022-09-14T00:06:32;15.70;99.90
22153;DHT22;11242;50.536;12.688;2022-09-14T00:08:59;15.70;99.90
22153;DHT22;11242;50.536;12.688;2022-09-14T00:11:29;15.60;99.90
22153;DHT22;11242;50.536;12.688;2022-09-14T00:13:56;15.60;99.90
22153;DHT22;11242;50.536;12.688;2022-09-14T00:16:25;15.60;99.90
22153;DHT22;11242;50.536;12.688;2022-09-14T00:18:52;15.60;99.90
22153;DHT22;11242;50.536;12.688;2022-09-14T00:21:18;15.60;99.90
22153;DHT22;11242;50.536;12.688;2022-09-14T00:23:44;15.60;99.90
22153;DHT22;11242;50.536;12.688;2022-09-14T00:26:13;15.70;99.90
22153;DHT22;11242;50.536;12.688;2022-09-14T00:28:40;15.70;99.90
22153;DHT22;11242;50.536;12.688;2022-09-14T00:31:07;15.70;99.90
22153;DHT22;11242;50.536;12.688;2022-09-14T00:33:33;15.70;99.90
22153;DHT22;11242;50.536;12.688;2022-09-14T00:36:04;15.80;99.90
22153;DHT22;11242;50.536;12.688;2022-09-14T00:38:29;15.80;99.90
22153;DHT22;11242;50.536;12.688;2022-09-14T00:40:57;15.70;99.90
22153;DHT22;11242;50.536;12.688;2022-09-14T00:43:22;15.80;99.90
22153;DHT22;11242;50.536;12.688;2022-09-14T00:45:48;15.80;99.90
22153;DHT22;11242;50.536;12.688;2022-09-14T00:48:13;15.80;99.90
22153;DHT22;11242;50.536;12.688;2022-09-14T00:50:39;15.80;99.90
22153;DHT22;11242;50.536;12.688;2022-09-14T00:53:05;15.80;99.90
22153;DHT22;11242;50.536;12.688;2022-09-14T00:55:32;15.70;99.90
22153;DHT22;11242;50.536;12.688;2022-09-14T00:57:57;15.70;99.90
22153;DHT22;11242;50.536;12.688;2022-09-14T01:00:26;15.60;99.90
22153;DHT22;11242;50.536;12.688;2022-09-14T01:02:53;15.60;99.90
22153;DHT22;11242;50.536;12.688;2022-09-14T01:05:25;15.50;99.90
22153;DHT22;11242;50.536;12.688;2022-09-14T01:08:17;15.50;99.90
22153;DHT22;11242;50.536;12.688;2022-09-14T01:11:23;15.40;99.90
22153;DHT22;11242;50.536;12.688;2022-09-14T01:16:36;15.40;99.90
22153;DHT22;11242;50.536;12.688;2022-09-14T01:19:13;15.30;99.90
22153;DHT22;11242;50.536;12.688;2022-09-14T01:21:41;15.20;99.90
22153;DHT22;11242;50.536;12.688;2022-09-14T01:27:15;15.20;99.90
22153;DHT22;11242;50.536;12.688;2022-09-14T01:29:48;15.20;99.90
22153;DHT22;11242;50.536;12.688;2022-09-14T01:32:19;15.20;99.90
22153;DHT22;11242;50.536;12.688;2022-09-14T01:34:50;15.20;99.90
22153;DHT22;11242;50.536;12.688;2022-09-14T01:37:30;15.20;99.90
22153;DHT22;11242;50.536;12.688;2022-09-14T01:40:02;15.20;99.90
22153;DHT22;11242;50.536;12.688;2022-09-14T01:42:29;15.20;99.90
22153;DHT22;11242;50.536;12.688;2022-09-14T01:44:59;15.10;99.90
22153;DHT22;11242;50.536;12.688;2022-09-14T01:47:30;15.10;99.90
22153;DHT22;11242;50.536;12.688;2022-09-14T01:50:09;15.10;99.90
22153;DHT22;11242;50.536;12.688;2022-09-14T01:52:48;15.10;99.90
22153;DHT22;11242;50.536;12.688;2022-09-14T01:55:19;15.00;99.90
22153;DHT22;11242;50.536;12.688;2022-09-14T02:00:23;15.00;99.90
22153;DHT22;11242;50.536;12.688;2022-09-14T02:03:03;14.90;99.90
22153;DHT22;11242;50.536;12.688;2022-09-14T02:07:58;14.90;99.90
22153;DHT22;11242;50.536;12.688;2022-09-14T02:10:24;14.90;99.90
22153;DHT22;11242;50.536;12.688;2022-09-14T02:12:51;14.90;99.90
22153;DHT22;11242;50.536;12.688;2022-09-14T02:15:17;14.90;99.90
22153;DHT22;11242;50.536;12.688;2022-09-14T02:17:44;14.90;99.90
22153;DHT22;11242;50.536;12.688;2022-09-14T02:20:17;14.90;99.90
22153;DHT22;11242;50.536;12.688;2022-09-14T02:22:44;14.90;99.90
22153;DHT22;11242;50.536;12.688;2022-09-14T02:25:10;14.90;99.90
22153;DHT22;11242;50.536;12.688;2022-09-14T02:27:36;14.90;99.90
22153;DHT22;11242;50.536;12.688;2022-09-14T02:30:02;14.90;99.90
22153;DHT22;11242;50.536;12.688;2022-09-14T02:32:47;14.90;99.90
22153;DHT22;11242;50.536;12.688;2022-09-14T02:35:25;14.90;99.90
22153;DHT22;11242;50.536;12.688;2022-09-14T02:40:35;14.90;99.90
22153;DHT22;11242;50.536;12.688;2022-09-14T02:43:34;14.90;99.90
22153;DHT22;11242;50.536;12.688;2022-09-14T02:46:21;14.90;99.90
22153;DHT22;11242;50.536;12.688;2022-09-14T02:49:02;14.90;99.90
22153;DHT22;11242;50.536;12.688;2022-09-14T02:56:52;14.90;99.90
22153;DHT22;11242;50.536;12.688;2022-09-14T02:59:18;14.90;99.90
22153;DHT22;11242;50.536;12.688;2022-09-14T03:01:43;14.90;99.90
22153;DHT22;11242;50.536;12.688;2022-09-14T03:04:09;14.90;99.90
22153;DHT22;11242;50.536;12.688;2022-09-14T03:06:34;14.90;99.90
22153;DHT22;11242;50.536;12.688;2022-09-14T03:09:00;14.80;99.90
22153;DHT22;11242;50.536;12.688;2022-09-14T03:11:26;14.80;99.90
22153;DHT22;11242;50.536;12.688;2022-09-14T03:13:51;14.90;99.90
22153;DHT22;11242;50.536;12.688;2022-09-14T03:16:17;14.90;99.90
22153;DHT22;11242;50.536;12.688;2022-09-14T03:18:43;14.90;99.90
22153;DHT22;11242;50.536;12.688;2022-09-14T03:21:11;14.80;99.90
22153;DHT22;11242;50.536;12.688;2022-09-14T03:23:38;14.80;99.90
22153;DHT22;11242;50.536;12.688;2022-09-14T03:26:09;14.90;99.90
22153;DHT22;11242;50.536;12.688;2022-09-14T03:28:35;14.80;99.90
22153;DHT22;11242;50.536;12.688;2022-09-14T03:31:03;14.80;99.90
22153;DHT22;11242;50.536;12.688;2022-09-14T03:33:28;14.80;99.90
22153;DHT22;11242;50.536;12.688;2022-09-14T03:35:54;14.80;99.90
22153;DHT22;11242;50.536;12.688;2022-09-14T03:38:19;14.90;99.90
22153;DHT22;11242;50.536;12.688;2022-09-14T03:40:45;14.90;99.90
22153;DHT22;11242;50.536;12.688;2022-09-14T03:43:12;14.90;99.90
22153;DHT22;11242;50.536;12.688;2022-09-14T03:45:38;14.80;99.90
22153;DHT22;11242;50.536;12.688;2022-09-14T03:48:04;14.80;99.90
22153;DHT22;11242;50.536;12.688;2022-09-14T03:50:31;14.80;99.90
22153;DHT22;11242;50.536;12.688;2022-09-14T03:52:57;14.80;99.90
22153;DHT22;11242;50.536;12.688;2022-09-14T03:55:22;14.80;99.90
22153;DHT22;11242;50.536;12.688;2022-09-14T03:57:53;14.80;99.90
22153;DHT22;11242;50.536;12.688;2022-09-14T04:00:19;14.80;99.90
22153;DHT22;11242;50.536;12.688;2022-09-14T04:02:44;14.90;99.90
22153;DHT22;11242;50.536;12.688;2022-09-14T04:05:10;14.80;99.90
22153;DHT22;11242;50.536;12.688;2022-09-14T04:07:36;14.80;99.90
22153;DHT22;11242;50.536;12.688;2022-09-14T04:10:02;14.80;99.90
22153;DHT22;11242;50.536;12.688;2022-09-14T04:12:27;14.70;99.90
22153;DHT22;11242;50.536;12.688;2022-09-14T04:14:53;14.70;99.90
22153;DHT22;11242;50.536;12.688;2022-09-14T04:17:18;14.70;99.90
22153;DHT22;11242;50.536;12.688;2022-09-14T04:19:44;14.70;99.90
22153;DHT22;11242;50.536;12.688;2022-09-14T04:22:09;14.70;99.90
22153;DHT22;11242;50.536;12.688;2022-09-14T04:24:35;14.70;99.90
22153;DHT22;11242;50.536;12.688;2022-09-14T04:27:01;14.70;99.90
22153;DHT22;11242;50.536;12.688;2022-09-14T04:29:26;14.70;99.90
22153;DHT22;11242;50.536;12.688;2022-09-14T04:31:54;14.70;99.90
22153;DHT22;11242;50.536;12.688;2022-09-14T04:34:20;14.80;99.90
22153;DHT22;11242;50.536;12.688;2022-09-14T04:36:45;14.80;99.90
22153;DHT22;11242;50.536;12.688;2022-09-14T04:39:12;14.90;99.90
22153;DHT22;11242;50.536;12.688;2022-09-14T04:41:38;14.90;99.90
22153;DHT22;11242;50.536;12.688;2022-09-14T04:44:04;14.90;99.90
22153;DHT22;11242;50.536;12.688;2022-09-14T04:46:31;14.70;99.90
22153;DHT22;11242;50.536;12.688;2022-09-14T04:48:59;14.70;99.90
22153;DHT22;11242;50.536;12.688;2022-09-14T04:51:27;14.70;99.90
22153;DHT22;11242;50.536;12.688;2022-09-14T04:53:54;14.60;99.90
22153;DHT22;11242;50.536;12.688;2022-09-14T04:56:24;14.60;99.90
22153;DHT22;11242;50.536;12.688;2022-09-14T04:58:53;14.70;99.90
22153;DHT22;11242;50.536;12.688;2022-09-14T05:01:30;14.70;99.90
22153;DHT22;11242;50.536;12.688;2022-09-14T05:03:56;14.70;99.90
22153;DHT22;11242;50.536;12.688;2022-09-14T05:06:28;14.70;99.90
22153;DHT22;11242;50.536;12.688;2022-09-14T05:08:54;14.70;99.90
22153;DHT22;11242;50.536;12.688;2022-09-14T05:11:22;14.80;99.90
22153;DHT22;11242;50.536;12.688;2022-09-14T05:13:48;14.80;99.90
22153;DHT22;11242;50.536;12.688;2022-09-14T05:16:19;14.90;99.90
22153;DHT22;11242;50.536;12.688;2022-09-14T05:18:45;14.90;99.90
22153;DHT22;11242;50.536;12.688;2022-09-14T05:21:14;14.80;99.90
22153;DHT22;11242;50.536;12.688;2022-09-14T05:23:40;14.80;99.90
22153;DHT22;11242;50.536;12.688;2022-09-14T05:26:06;14.80;99.90
22153;DHT22;11242;50.536;12.688;2022-09-14T05:28:33;14.80;99.90
22153;DHT22;11242;50.536;12.688;2022-09-14T05:31:03;14.90;99.90
22153;DHT22;11242;50.536;12.688;2022-09-14T05:33:28;14.90;99.90
22153;DHT22;11242;50.536;12.688;2022-09-14T05:36:02;14.90;99.90
22153;DHT22;11242;50.536;12.688;2022-09-14T05:38:33;14.90;99.90
22153;DHT22;11242;50.536;12.688;2022-09-14T05:40:59;14.90;99.90
22153;DHT22;11242;50.536;12.688;2022-09-14T05:43:27;14.90;99.90
22153;DHT22;11242;50.536;12.688;2022-09-14T05:45:52;14.90;99.90
22153;DHT22;11242;50.536;12.688;2022-09-14T05:48:18;14.90;99.90
22153;DHT22;11242;50.536;12.688;2022-09-14T05:50:44;14.90;99.90
22153;DHT22;11242;50.536;12.688;2022-09-14T05:53:09;14.90;99.90
22153;DHT22;11242;50.536;12.688;2022-09-14T05:55:35;14.90;99.90
22153;DHT22;11242;50.536;12.688;2022-09-14T05:58:00;14.90;99.90
22153;DHT22;11242;50.536;12.688;2022-09-14T06:00:26;15.00;99.90
22153;DHT22;11242;50.536;12.688;2022-09-14T06:02:53;15.00;99.90
22153;DHT22;11242;50.536;12.688;2022-09-14T06:05:20;15.00;99.90
22153;DHT22;11242;50.536;12.688;2022-09-14T06:07:52;14.90;99.90
22153;DHT22;11242;50.536;12.688;2022-09-14T06:10:18;14.90;99.90
22153;DHT22;11242;50.536;12.688;2022-09-14T06:12:44;14.80;99.90
22153;DHT22;11242;50.536;12.688;2022-09-14T06:15:10;14.80;99.90
22153;DHT22;11242;50.536;12.688;2022-09-14T06:17:36;14.90;99.90
22153;DHT22;11242;50.536;12.688;2022-09-14T06:20:03;14.90;99.90
22153;DHT22;11242;50.536;12.688;2022-09-14T06:22:30;15.00;99.90
22153;DHT22;11242;50.536;12.688;2022-09-14T06:24:56;15.10;99.90
22153;DHT22;11242;50.536;12.688;2022-09-14T06:27:21;15.20;99.90
22153;DHT22;11242;50.536;12.688;2022-09-14T06:29:47;15.20;99.90
22153;DHT22;11242;50.536;12.688;2022-09-14T06:32:17;15.20;99.90
22153;DHT22;11242;50.536;12.688;2022-09-14T06:34:43;15.30;99.90
22153;DHT22;11242;50.536;12.688;2022-09-14T06:37:09;15.30;99.90
22153;DHT22;11242;50.536;12.688;2022-09-14T06:39:35;15.30;99.90
22153;DHT22;11242;50.536;12.688;2022-09-14T06:42:01;15.40;99.90
22153;DHT22;11242;50.536;12.688;2022-09-14T06:44:27;15.40;99.90
22153;DHT22;11242;50.536;12.688;2022-09-14T06:46:53;15.30;99.90
22153;DHT22;11242;50.536;12.688;2022-09-14T06:49:18;15.30;99.90
22153;DHT22;11242;50.536;12.688;2022-09-14T06:51:48;15.30;99.90
22153;DHT22;11242;50.536;12.688;2022-09-14T06:54:16;15.30;99.90
22153;DHT22;11242;50.536;12.688;2022-09-14T06:56:43;15.40;99.90
22153;DHT22;11242;50.536;12.688;2022-09-14T06:59:12;15.40;99.90
22153;DHT22;11242;50.536;12.688;2022-09-14T07:01:38;15.40;99.90
22153;DHT22;11242;50.536;12.688;2022-09-14T07:04:04;15.40;99.90
22153;DHT22;11242;50.536;12.688;2022-09-14T07:06:37;15.40;99.90
22153;DHT22;11242;50.536;12.688;2022-09-14T07:09:03;15.50;99.90
22153;DHT22;11242;50.536;12.688;2022-09-14T07:11:29;15.40;99.90
22153;DHT22;11242;50.536;12.688;2022-09-14T07:13:55;15.30;99.90
22153;DHT22;11242;50.536;12.688;2022-09-14T07:16:24;15.30;99.90
22153;DHT22;11242;50.536;12.688;2022-09-14T07:18:55;15.30;99.90
22153;DHT22;11242;50.536;12.688;2022-09-14T07:21:21;15.30;99.90
22153;DHT22;11242;50.536;12.688;2022-09-14T07:23:48;15.30;99.90
22153;DHT22;11242;50.536;12.688;2022-09-14T07:26:19;15.30;99.90
22153;DHT22;11242;50.536;12.688;2022-09-14T07:28:46;15.30;99.90
22153;DHT22;11242;50.536;12.688;2022-09-14T07:31:17;15.40;99.90
22153;DHT22;11242;50.536;12.688;2022-09-14T07:33:44;15.40;99.90
22153;DHT22;11242;50.536;12.688;2022-09-14T07:36:11;15.50;99.90
22153;DHT22;11242;50.536;12.688;2022-09-14T07:38:37;15.60;99.90
22153;DHT22;11242;50.536;12.688;2022-09-14T07:41:03;15.60;99.90
22153;DHT22;11242;50.536;12.688;2022-09-14T07:43:29;15.60;99.90
22153;DHT22;11242;50.536;12.688;2022-09-14T07:45:55;15.60;99.90
22153;DHT22;11242;50.536;12.688;2022-09-14T07:48:21;15.60;99.90
22153;DHT22;11242;50.536;12.688;2022-09-14T07:50:47;15.60;99.90
22153;DHT22;11242;50.536;12.688;2022-09-14T07:53:13;15.50;99.90
22153;DHT22;11242;50.536;12.688;2022-09-14T07:55:39;15.50;99.90
22153;DHT22;11242;50.536;12.688;2022-09-14T07:58:06;15.50;99.90
22153;DHT22;11242;50.536;12.688;2022-09-14T08:00:32;15.60;99.90
22153;DHT22;11242;50.536;12.688;2022-09-14T08:02:57;15.70;99.90
22153;DHT22;11242;50.536;12.688;2022-09-14T08:05:24;15.70;99.90
22153;DHT22;11242;50.536;12.688;2022-09-14T08:07:54;15.80;99.90
22153;DHT22;11242;50.536;12.688;2022-09-14T08:10:19;15.90;99.90
22153;DHT22;11242;50.536;12.688;2022-09-14T08:12:50;15.90;99.90
22153;DHT22;11242;50.536;12.688;2022-09-14T08:15:16;15.80;99.90
22153;DHT22;11242;50.536;12.688;2022-09-14T08:17:41;15.80;99.90
22153;DHT22;11242;50.536;12.688;2022-09-14T08:20:07;15.80;99.90
22153;DHT22;11242;50.536;12.688;2022-09-14T08:22:32;15.90;99.90
22153;DHT22;11242;50.536;12.688;2022-09-14T08:24:58;16.20;99.90
22153;DHT22;11242;50.536;12.688;2022-09-14T08:27:24;16.40;99.90
22153;DHT22;11242;50.536;12.688;2022-09-14T08:29:49;16.50;99.90
22153;DHT22;11242;50.536;12.688;2022-09-14T08:32:15;16.50;99.90
22153;DHT22;11242;50.536;12.688;2022-09-14T08:34:40;16.60;99.90
22153;DHT22;11242;50.536;12.688;2022-09-14T08:37:06;16.60;99.90
22153;DHT22;11242;50.536;12.688;2022-09-14T08:39:31;16.70;99.90
22153;DHT22;11242;50.536;12.688;2022-09-14T08:41:58;16.60;99.90
22153;DHT22;11242;50.536;12.688;2022-09-14T08:44:43;16.60;99.90
22153;DHT22;11242;50.536;12.688;2022-09-14T08:47:29;16.60;99.90
22153;DHT22;11242;50.536;12.688;2022-09-14T08:50:12;16.60;99.90
22153;DHT22;11242;50.536;12.688;2022-09-14T08:52:52;16.70;99.90
22153;DHT22;11242;50.536;12.688;2022-09-14T08:55:32;16.80;99.90
22153;DHT22;11242;50.536;12.688;2022-09-14T08:58:11;16.80;99.90
22153;DHT22;11242;50.536;12.688;2022-09-14T09:00:54;16.90;99.90
22153;DHT22;11242;50.536;12.688;2022-09-14T09:06:16;17.20;99.90
22153;DHT22;11242;50.536;12.688;2022-09-14T09:09:02;17.40;99.90
22153;DHT22;11242;50.536;12.688;2022-09-14T09:11:42;17.60;99.90
22153;DHT22;11242;50.536;12.688;2022-09-14T09:16:47;17.90;99.90
22153;DHT22;11242;50.536;12.688;2022-09-14T09:19:20;18.00;99.90
22153;DHT22;11242;50.536;12.688;2022-09-14T09:21:48;17.90;99.90
22153;DHT22;11242;50.536;12.688;2022-09-14T09:24:33;18.00;99.90
22153;DHT22;11242;50.536;12.688;2022-09-14T09:27:03;18.10;99.90
22153;DHT22;11242;50.536;12.688;2022-09-14T09:29:29;18.60;99.90
22153;DHT22;11242;50.536;12.688;2022-09-14T09:32:15;18.60;99.90
22153;DHT22;11242;50.536;12.688;2022-09-14T09:34:57;18.70;99.90
22153;DHT22;11242;50.536;12.688;2022-09-14T09:37:39;18.70;99.90
22153;DHT22;11242;50.536;12.688;2022-09-14T09:40:27;18.70;99.90
22153;DHT22;11242;50.536;12.688;2022-09-14T09:43:12;18.80;99.90
22153;DHT22;11242;50.536;12.688;2022-09-14T09:45:48;18.80;99.90
22153;DHT22;11242;50.536;12.688;2022-09-14T09:48:17;18.60;99.90
22153;DHT22;11242;50.536;12.688;2022-09-14T09:50:57;18.60;99.90
22153;DHT22;11242;50.536;12.688;2022-09-14T09:53:23;18.60;99.90
22153;DHT22;11242;50.536;12.688;2022-09-14T09:55:49;18.70;99.90
22153;DHT22;11242;50.536;12.688;2022-09-14T09:58:44;18.60;99.90
22153;DHT22;11242;50.536;12.688;2022-09-14T10:01:30;18.60;99.90
22153;DHT22;11242;50.536;12.688;2022-09-14T10:06:43;18.80;99.90
22153;DHT22;11242;50.536;12.688;2022-09-14T10:09:28;18.90;99.90
22153;DHT22;11242;50.536;12.688;2022-09-14T10:12:01;18.90;99.90
22153;DHT22;11242;50.536;12.688;2022-09-14T10:14:28;18.80;99.90
22153;DHT22;11242;50.536;12.688;2022-09-14T10:17:15;18.70;99.90
22153;DHT22;11242;50.536;12.688;2022-09-14T10:19:49;18.70;99.90
22153;DHT22;11242;50.536;12.688;2022-09-14T10:22:27;18.60;99.90
22153;DHT22;11242;50.536;12.688;2022-09-14T10:27:31;18.60;99.90
22153;DHT22;11242;50.536;12.688;2022-09-14T10:29:59;18.70;99.90
22153;DHT22;11242;50.536;12.688;2022-09-14T10:32:27;18.70;99.90
22153;DHT22;11242;50.536;12.688;2022-09-14T10:34:54;18.70;99.90
22153;DHT22;11242;50.536;12.688;2022-09-14T10:37:45;18.60;99.90
22153;DHT22;11242;50.536;12.688;2022-09-14T10:40:18;18.60;99.90
22153;DHT22;11242;50.536;12.688;2022-09-14T10:42:55;18.40;99.90
22153;DHT22;11242;50.536;12.688;2022-09-14T10:45:33;18.30;99.90
22153;DHT22;11242;50.536;12.688;2022-09-14T10:48:06;18.20;99.90
22153;DHT22;11242;50.536;12.688;2022-09-14T10:53:43;18.20;99.90
22153;DHT22;11242;50.536;12.688;2022-09-14T10:56:18;18.20;99.90
22153;DHT22;11242;50.536;12.688;2022-09-14T11:08:03;18.20;99.90
22153;DHT22;11242;50.536;12.688;2022-09-14T11:13:35;18.00;99.90
22153;DHT22;11242;50.536;12.688;2022-09-14T11:19:04;18.00;99.90
22153;DHT22;11242;50.536;12.688;2022-09-14T11:21:58;18.10;99.90
22153;DHT22;11242;50.536;12.688;2022-09-14T11:24:39;18.20;99.90
22153;DHT22;11242;50.536;12.688;2022-09-14T11:30:09;18.50;99.90
22153;DHT22;11242;50.536;12.688;2022-09-14T11:32:50;18.60;99.90
22153;DHT22;11242;50.536;12.688;2022-09-14T11:35:33;18.60;99.90
22153;DHT22;11242;50.536;12.688;2022-09-14T11:38:05;18.60;99.90
22153;DHT22;11242;50.536;12.688;2022-09-14T11:43:21;18.60;99.90
22153;DHT22;11242;50.536;12.688;2022-09-14T11:45:54;18.50;99.90
22153;DHT22;11242;50.536;12.688;2022-09-14T11:48:48;18.40;99.90
22153;DHT22;11242;50.536;12.688;2022-09-14T11:51:27;18.30;99.90
22153;DHT22;11242;50.536;12.688;2022-09-14T11:53:56;18.40;99.90
22153;DHT22;11242;50.536;12.688;2022-09-14T11:56:27;18.50;99.90
22153;DHT22;11242;50.536;12.688;2022-09-14T11:59:03;18.50;99.90
22153;DHT22;11242;50.536;12.688;2022-09-14T12:01:36;18.50;99.90
22153;DHT22;11242;50.536;12.688;2022-09-14T12:11:42;18.60;99.90
22153;DHT22;11242;50.536;12.688;2022-09-14T12:17:20;18.60;99.90
22153;DHT22;11242;50.536;12.688;2022-09-14T12:19:48;18.70;99.90
22153;DHT22;11242;50.536;12.688;2022-09-14T12:22:19;19.10;99.90
22153;DHT22;11242;50.536;12.688;2022-09-14T12:24:57;19.50;99.90
22153;DHT22;11242;50.536;12.688;2022-09-14T12:27:23;19.80;99.90
22153;DHT22;11242;50.536;12.688;2022-09-14T12:29:48;20.00;99.90
22153;DHT22;11242;50.536;12.688;2022-09-14T12:32:38;19.80;99.90
22153;DHT22;11242;50.536;12.688;2022-09-14T12:51:32;19.40;99.90
22153;DHT22;11242;50.536;12.688;2022-09-14T13:05:23;19.60;99.90
22153;DHT22;11242;50.536;12.688;2022-09-14T13:07:50;19.90;99.90
22153;DHT22;11242;50.536;12.688;2022-09-14T13:10:31;20.00;99.90
22153;DHT22;11242;50.536;12.688;2022-09-14T13:13:03;20.30;99.90
22153;DHT22;11242;50.536;12.688;2022-09-14T13:15:43;20.40;99.90
22153;DHT22;11242;50.536;12.688;2022-09-14T13:21:16;20.20;99.90
22153;DHT22;11242;50.536;12.688;2022-09-14T13:23:42;20.30;99.90
22153;DHT22;11242;50.536;12.688;2022-09-14T13:26:20;20.10;99.90
22153;DHT22;11242;50.536;12.688;2022-09-14T13:28:48;20.00;99.90
22153;DHT22;11242;50.536;12.688;2022-09-14T13:31:32;20.20;99.90
22153;DHT22;11242;50.536;12.688;2022-09-14T13:33:59;20.30;99.90
22153;DHT22;11242;50.536;12.688;2022-09-14T13:36:29;20.50;99.90
22153;DHT22;11242;50.536;12.688;2022-09-14T13:38:57;20.60;99.90
22153;DHT22;11242;50.536;12.688;2022-09-14T13:41:26;20.60;99.90
22153;DHT22;11242;50.536;12.688;2022-09-14T13:43:53;20.60;99.90
22153;DHT22;11242;50.536;12.688;2022-09-14T13:46:21;20.50;99.90
22153;DHT22;11242;50.536;12.688;2022-09-14T13:48:48;20.20;99.90
22153;DHT22;11242;50.536;12.688;2022-09-14T13:51:14;20.00;99.90
22153;DHT22;11242;50.536;12.688;2022-09-14T13:53:46;19.90;99.90
22153;DHT22;11242;50.536;12.688;2022-09-14T13:56:22;19.70;99.90
22153;DHT22;11242;50.536;12.688;2022-09-14T13:58:49;19.40;99.90
22153;DHT22;11242;50.536;12.688;2022-09-14T14:01:27;19.30;99.90
22153;DHT22;11242;50.536;12.688;2022-09-14T14:03:53;19.20;99.90
22153;DHT22;11242;50.536;12.688;2022-09-14T14:06:30;19.00;99.90
22153;DHT22;11242;50.536;12.688;2022-09-14T14:08:57;18.90;99.90
22153;DHT22;11242;50.536;12.688;2022-09-14T14:11:38;19.00;99.90
22153;DHT22;11242;50.536;12.688;2022-09-14T14:14:24;18.90;99.90
22153;DHT22;11242;50.536;12.688;2022-09-14T14:19:37;18.70;99.90
22153;DHT22;11242;50.536;12.688;2022-09-14T14:22:33;18.60;99.90
22153;DHT22;11242;50.536;12.688;2022-09-14T14:25:15;18.60;99.90
22153;DHT22;11242;50.536;12.688;2022-09-14T14:27:43;18.50;99.90
22153;DHT22;11242;50.536;12.688;2022-09-14T14:30:14;18.50;99.90
22153;DHT22;11242;50.536;12.688;2022-09-14T14:32:41;18.40;99.90
22153;DHT22;11242;50.536;12.688;2022-09-14T14:35:14;18.30;99.90
22153;DHT22;11242;50.536;12.688;2022-09-14T14:37:40;18.20;99.90
22153;DHT22;11242;50.536;12.688;2022-09-14T14:40:09;18.00;99.90
22153;DHT22;11242;50.536;12.688;2022-09-14T14:42:35;17.90;99.90
22153;DHT22;11242;50.536;12.688;2022-09-14T14:45:01;17.90;99.90
22153;DHT22;11242;50.536;12.688;2022-09-14T14:47:27;17.60;99.90
22153;DHT22;11242;50.536;12.688;2022-09-14T14:49:52;17.70;99.90
22153;DHT22;11242;50.536;12.688;2022-09-14T14:52:18;17.80;99.90
22153;DHT22;11242;50.536;12.688;2022-09-14T14:54:44;17.90;99.90
22153;DHT22;11242;50.536;12.688;2022-09-14T14:57:09;18.00;99.90
22153;DHT22;11242;50.536;12.688;2022-09-14T14:59:35;17.90;99.90
22153;DHT22;11242;50.536;12.688;2022-09-14T15:02:00;17.90;99.90
22153;DHT22;11242;50.536;12.688;2022-09-14T15:04:26;17.90;99.90
22153;DHT22;11242;50.536;12.688;2022-09-14T15:06:52;17.90;99.90
22153;DHT22;11242;50.536;12.688;2022-09-14T15:09:21;18.00;99.90
22153;DHT22;11242;50.536;12.688;2022-09-14T15:11:47;18.00;99.90
22153;DHT22;11242;50.536;12.688;2022-09-14T15:14:14;17.90;99.90
22153;DHT22;11242;50.536;12.688;2022-09-14T15:16:40;18.00;99.90
22153;DHT22;11242;50.536;12.688;2022-09-14T15:19:07;18.20;99.90
22153;DHT22;11242;50.536;12.688;2022-09-14T15:21:32;18.30;99.90
22153;DHT22;11242;50.536;12.688;2022-09-14T15:23:58;18.20;99.90
22153;DHT22;11242;50.536;12.688;2022-09-14T15:26:27;18.30;99.90
22153;DHT22;11242;50.536;12.688;2022-09-14T15:28:52;18.30;99.90
22153;DHT22;11242;50.536;12.688;2022-09-14T15:31:18;18.30;99.90
22153;DHT22;11242;50.536;12.688;2022-09-14T15:33:44;18.20;99.90
22153;DHT22;11242;50.536;12.688;2022-09-14T15:36:10;18.10;99.90
22153;DHT22;11242;50.536;12.688;2022-09-14T15:38:36;18.00;99.90
22153;DHT22;11242;50.536;12.688;2022-09-14T15:41:01;17.90;99.90
22153;DHT22;11242;50.536;12.688;2022-09-14T15:43:27;17.90;99.90
22153;DHT22;11242;50.536;12.688;2022-09-14T15:45:52;17.90;99.90
22153;DHT22;11242;50.536;12.688;2022-09-14T15:48:18;17.70;99.90
22153;DHT22;11242;50.536;12.688;2022-09-14T15:50:46;17.60;99.90
22153;DHT22;11242;50.536;12.688;2022-09-14T15:53:14;17.70;99.90
22153;DHT22;11242;50.536;12.688;2022-09-14T15:55:41;17.60;99.90
22153;DHT22;11242;50.536;12.688;2022-09-14T15:58:08;17.60;99.90
22153;DHT22;11242;50.536;12.688;2022-09-14T16:00:35;17.60;99.90
22153;DHT22;11242;50.536;12.688;2022-09-14T16:03:01;17.60;99.90
22153;DHT22;11242;50.536;12.688;2022-09-14T16:05:28;17.50;99.90
22153;DHT22;11242;50.536;12.688;2022-09-14T16:07:55;17.40;99.90
22153;DHT22;11242;50.536;12.688;2022-09-14T16:10:21;17.30;99.90
22153;DHT22;11242;50.536;12.688;2022-09-14T16:12:47;17.30;99.90
22153;DHT22;11242;50.536;12.688;2022-09-14T16:15:13;17.20;99.90
22153;DHT22;11242;50.536;12.688;2022-09-14T16:17:39;17.20;99.90
22153;DHT22;11242;50.536;12.688;2022-09-14T16:20:04;17.20;99.90
22153;DHT22;11242;50.536;12.688;2022-09-14T16:22:32;17.30;99.90
22153;DHT22;11242;50.536;12.688;2022-09-14T16:24:58;17.20;99.90
22153;DHT22;11242;50.536;12.688;2022-09-14T16:27:24;17.20;99.90
22153;DHT22;11242;50.536;12.688;2022-09-14T16:29:49;17.20;99.90
22153;DHT22;11242;50.536;12.688;2022-09-14T16:32:15;17.00;99.90
22153;DHT22;11242;50.536;12.688;2022-09-14T16:34:40;16.90;99.90
22153;DHT22;11242;50.536;12.688;2022-09-14T16:37:06;16.90;99.90
22153;DHT22;11242;50.536;12.688;2022-09-14T16:39:31;16.80;99.90
22153;DHT22;11242;50.536;12.688;2022-09-14T16:41:59;16.80;99.90
22153;DHT22;11242;50.536;12.688;2022-09-14T16:44:26;16.70;99.90
22153;DHT22;11242;50.536;12.688;2022-09-14T16:46:53;16.70;99.90
22153;DHT22;11242;50.536;12.688;2022-09-14T16:49:20;16.70;99.90
22153;DHT22;11242;50.536;12.688;2022-09-14T16:51:46;16.70;99.90
22153;DHT22;11242;50.536;12.688;2022-09-14T16:54:16;16.60;99.90
22153;DHT22;11242;50.536;12.688;2022-09-14T16:56:42;16.60;99.90
22153;DHT22;11242;50.536;12.688;2022-09-14T16:59:08;16.70;99.90
22153;DHT22;11242;50.536;12.688;2022-09-14T17:01:36;16.70;99.90
22153;DHT22;11242;50.536;12.688;2022-09-14T17:04:06;16.60;99.90
22153;DHT22;11242;50.536;12.688;2022-09-14T17:06:33;16.60;99.90
22153;DHT22;11242;50.536;12.688;2022-09-14T17:09:02;16.60;99.90